createdAt,value
2019-01-29T00:00:29.179Z,47.27
2019-01-29T00:03:03.828Z,47.17
2019-01-29T00:05:37.011Z,46.80
2019-01-29T00:08:10.294Z,46.59
2019-01-29T00:10:45.388Z,46.44
2019-01-29T00:13:18.688Z,46.33
2019-01-29T00:15:52.297Z,46.76
2019-01-29T00:18:25.470Z,46.07
2019-01-29T00:20:58.982Z,45.67
2019-01-29T00:23:32.052Z,45.46
2019-01-29T00:26:05.773Z,44.81
2019-01-29T00:28:39.140Z,43.92
2019-01-29T00:31:12.634Z,44.38
2019-01-29T00:33:45.876Z,44.12
2019-01-29T00:36:19.413Z,43.53
2019-01-29T00:38:53.265Z,43.59
2019-01-29T00:41:27.140Z,43.70
2019-01-29T00:44:00.893Z,43.22
2019-01-29T00:46:34.751Z,42.61
2019-01-29T00:49:08.150Z,42.44
2019-01-29T00:51:41.661Z,42.71
2019-01-29T00:54:16.126Z,43.05
2019-01-29T00:56:49.377Z,42.73
2019-01-29T00:59:24.251Z,42.04
2019-01-29T01:01:57.506Z,41.91
2019-01-29T01:04:30.930Z,41.76
2019-01-29T01:07:04.444Z,41.83
2019-01-29T01:09:39.111Z,41.99
2019-01-29T01:12:12.751Z,41.79
2019-01-29T01:14:46.249Z,41.16
2019-01-29T01:17:19.724Z,41.02
2019-01-29T01:19:53.457Z,41.05
2019-01-29T01:22:27.895Z,41.19
2019-01-29T01:25:01.565Z,41.51
2019-01-29T01:27:35.135Z,41.24
2019-01-29T01:30:17.077Z,41.24
2019-01-29T01:32:51.594Z,41.89
2019-01-29T01:35:26.082Z,41.36
2019-01-29T01:37:59.688Z,41.58
2019-01-29T01:40:33.033Z,41.54
2019-01-29T01:43:07.633Z,41.33
2019-01-29T01:45:41.249Z,41.05
2019-01-29T01:48:14.656Z,40.76
2019-01-29T01:50:48.177Z,40.70
2019-01-29T01:53:22.466Z,40.30
2019-01-29T01:55:56.275Z,39.68
2019-01-29T01:58:30.616Z,38.97
2019-01-29T02:01:03.923Z,38.79
2019-01-29T02:03:37.678Z,37.99
2019-01-29T02:06:10.809Z,38.47
2019-01-29T02:08:43.843Z,38.46
2019-01-29T02:11:17.573Z,38.33
2019-01-29T02:13:51.778Z,37.64
2019-01-29T02:16:25.701Z,37.97
2019-01-29T02:18:58.986Z,37.11
2019-01-29T02:21:33.229Z,36.83
2019-01-29T02:24:07.731Z,36.77
2019-01-29T02:26:41.357Z,36.18
2019-01-29T02:29:15.965Z,35.00
2019-01-29T02:31:49.309Z,35.23
2019-01-29T02:34:22.565Z,35.40
2019-01-29T02:36:55.946Z,35.20
2019-01-29T02:39:30.610Z,35.36
2019-01-29T02:42:05.755Z,35.18
2019-01-29T02:44:39.014Z,34.36
2019-01-29T02:47:12.407Z,33.77
2019-01-29T02:49:45.917Z,33.22
2019-01-29T02:52:20.665Z,31.86
2019-01-29T02:54:54.441Z,30.98
2019-01-29T02:57:28.723Z,30.37
2019-01-29T03:00:01.970Z,29.96
2019-01-29T03:02:36.522Z,30.03
2019-01-29T03:05:12.391Z,30.28
2019-01-29T03:07:46.574Z,30.26
2019-01-29T03:10:22.255Z,30.79
2019-01-29T03:12:59.089Z,30.01
2019-01-29T03:15:33.590Z,30.31
2019-01-29T03:21:33.627Z,30.11
2019-01-29T03:24:07.028Z,29.51
2019-01-29T03:26:41.740Z,29.21
2019-01-29T03:29:15.489Z,29.13
2019-01-29T03:31:49.649Z,28.95
2019-01-29T03:34:43.803Z,28.35
2019-01-29T03:37:16.891Z,28.30
2019-01-29T03:39:50.121Z,26.70
2019-01-29T03:42:24.631Z,25.13
2019-01-29T03:44:58.076Z,25.39
2019-01-29T03:47:32.051Z,25.34
2019-01-29T03:50:06.712Z,25.30
2019-01-29T03:52:39.794Z,24.94
2019-01-29T03:55:13.662Z,24.19
2019-01-29T03:57:47.515Z,24.53
2019-01-29T04:00:23.706Z,24.11
2019-01-29T04:02:57.405Z,24.35
2019-01-29T04:05:31.768Z,24.52
2019-01-29T04:08:05.149Z,23.61
2019-01-29T04:10:38.741Z,23.38
2019-01-29T04:13:12.288Z,23.29
2019-01-29T04:15:45.700Z,23.07
2019-01-29T04:18:20.377Z,22.94
2019-01-29T04:20:55.409Z,23.41
2019-01-29T04:23:29.816Z,23.29
2019-01-29T04:26:03.213Z,23.44
2019-01-29T04:28:36.471Z,23.54
2019-01-29T04:31:10.170Z,23.63
2019-01-29T04:33:43.608Z,22.79
2019-01-29T04:36:18.481Z,23.48
2019-01-29T04:38:51.684Z,24.01
2019-01-29T04:41:25.734Z,22.99
2019-01-29T04:44:00.304Z,23.07
2019-01-29T04:46:33.414Z,22.85
2019-01-29T04:49:07.366Z,22.71
2019-01-29T04:51:42.582Z,22.93
2019-01-29T04:54:18.109Z,23.24
2019-01-29T04:56:51.569Z,23.04
2019-01-29T04:59:25.082Z,23.05
2019-01-29T05:01:58.957Z,22.91
2019-01-29T05:04:34.465Z,23.52
2019-01-29T05:07:08.181Z,23.34
2019-01-29T05:09:42.606Z,22.70
2019-01-29T05:12:16.521Z,22.80
2019-01-29T05:14:49.842Z,22.19
2019-01-29T05:17:22.929Z,22.66
2019-01-29T05:19:56.303Z,22.39
2019-01-29T05:22:37.180Z,22.46
2019-01-29T05:25:04.057Z,22.93
2019-01-29T05:27:37.216Z,22.49
2019-01-29T05:30:20.477Z,22.85
2019-01-29T05:32:52.378Z,23.23
2019-01-29T05:35:25.701Z,25.24
2019-01-29T05:37:59.926Z,23.74
2019-01-29T05:40:33.317Z,23.74
2019-01-29T05:43:06.974Z,23.22
2019-01-29T05:45:39.854Z,21.88
2019-01-29T05:48:13.122Z,21.72
2019-01-29T05:50:46.380Z,21.46
2019-01-29T05:53:19.684Z,21.20
2019-01-29T05:55:53.378Z,22.66
2019-01-29T05:58:27.525Z,20.78
2019-01-29T06:01:00.800Z,20.64
2019-01-29T06:03:34.663Z,21.40
2019-01-29T06:06:08.153Z,21.18
2019-01-29T06:08:41.743Z,21.17
2019-01-29T06:11:14.847Z,20.77
2019-01-29T06:13:49.566Z,20.57
2019-01-29T06:16:23.399Z,20.21
2019-01-29T06:18:58.357Z,19.62
2019-01-29T06:21:31.627Z,19.82
2019-01-29T06:24:06.065Z,19.74
2019-01-29T06:26:39.736Z,20.11
2019-01-29T06:29:13.137Z,20.07
2019-01-29T06:31:46.476Z,19.92
2019-01-29T06:34:20.384Z,19.92
2019-01-29T06:36:53.813Z,19.92
2019-01-29T06:39:27.115Z,20.03
2019-01-29T06:42:02.264Z,19.96
2019-01-29T06:44:36.426Z,20.00
2019-01-29T06:47:10.039Z,20.21
2019-01-29T06:49:43.565Z,20.33
2019-01-29T06:52:16.960Z,20.40
2019-01-29T06:54:50.302Z,19.81
2019-01-29T06:57:24.924Z,20.18
2019-01-29T06:59:58.855Z,20.47
2019-01-29T07:02:32.568Z,20.50
2019-01-29T07:05:08.350Z,20.83
2019-01-29T07:07:42.541Z,20.85
2019-01-29T07:10:24.991Z,19.97
2019-01-29T07:12:58.751Z,20.33
2019-01-29T07:15:33.474Z,19.87
2019-01-29T07:18:06.777Z,20.61
2019-01-29T07:20:41.433Z,20.79
2019-01-29T07:23:14.670Z,20.70
2019-01-29T07:25:49.100Z,20.54
2019-01-29T07:28:22.174Z,20.89
2019-01-29T07:30:55.775Z,20.53
2019-01-29T07:33:29.187Z,20.50
2019-01-29T07:36:02.559Z,20.49
2019-01-29T07:38:36.301Z,21.13
2019-01-29T07:41:11.591Z,20.65
2019-01-29T07:43:45.202Z,21.23
2019-01-29T07:46:18.701Z,21.14
2019-01-29T07:48:52.242Z,21.35
2019-01-29T07:51:25.745Z,20.94
2019-01-29T07:53:59.942Z,21.23
2019-01-29T07:56:34.231Z,21.64
2019-01-29T07:59:08.835Z,21.63
2019-01-29T08:01:42.475Z,21.15
2019-01-29T08:04:17.644Z,21.28
2019-01-29T08:06:51.363Z,21.48
2019-01-29T08:09:43.909Z,21.91
2019-01-29T08:12:18.722Z,21.63
2019-01-29T08:14:52.367Z,21.62
2019-01-29T08:17:25.454Z,21.28
2019-01-29T08:19:59.221Z,21.92
2019-01-29T08:22:32.798Z,21.91
2019-01-29T08:25:07.643Z,22.08
2019-01-29T08:27:41.910Z,22.28
2019-01-29T08:30:16.968Z,23.14
2019-01-29T08:32:50.508Z,22.69
2019-01-29T08:35:25.558Z,22.19
2019-01-29T08:38:00.320Z,23.04
2019-01-29T08:40:33.925Z,22.39
2019-01-29T08:43:07.783Z,22.03
2019-01-29T08:45:41.539Z,22.87
2019-01-29T08:48:14.953Z,22.89
2019-01-29T08:50:49.570Z,22.80
2019-01-29T08:53:24.231Z,23.18
2019-01-29T08:56:04.403Z,23.45
2019-01-29T08:58:37.494Z,23.23
2019-01-29T09:01:11.076Z,23.23
2019-01-29T09:03:44.598Z,23.15
2019-01-29T09:06:17.787Z,23.56
2019-01-29T09:08:52.301Z,23.41
2019-01-29T09:11:25.884Z,22.75
2019-01-29T09:13:59.659Z,22.80
2019-01-29T09:16:34.014Z,22.61
2019-01-29T09:19:08.009Z,23.50
2019-01-29T09:21:44.623Z,23.52
2019-01-29T09:24:20.610Z,23.01
2019-01-29T09:26:55.227Z,22.84
2019-01-29T09:29:28.933Z,23.26
2019-01-29T09:32:02.772Z,24.17
2019-01-29T09:34:36.361Z,23.86
2019-01-29T09:37:11.356Z,23.80
2019-01-29T09:39:45.326Z,23.47
2019-01-29T09:42:21.544Z,24.39
2019-01-29T09:44:57.405Z,24.14
2019-01-29T09:47:31.944Z,23.85
2019-01-29T09:50:09.020Z,24.04
2019-01-29T09:52:44.804Z,23.78
2019-01-29T09:55:28.768Z,23.53
2019-01-29T09:57:59.463Z,23.46
2019-01-29T10:00:41.279Z,23.30
2019-01-29T10:15:02.997Z,22.72
2019-01-29T10:17:38.748Z,22.91
2019-01-29T10:20:13.886Z,23.44
2019-01-29T10:22:51.424Z,22.48
2019-01-29T10:25:37.013Z,22.71
2019-01-29T10:28:04.970Z,23.68
2019-01-29T10:30:44.601Z,22.90
2019-01-29T10:33:24.155Z,23.25
2019-01-29T10:36:00.817Z,22.98
2019-01-29T10:38:35.739Z,23.18
2019-01-29T10:41:10.833Z,23.63
2019-01-29T10:43:46.874Z,23.64
2019-01-29T10:46:25.425Z,23.89
2019-01-29T10:49:02.253Z,23.91
2019-01-29T10:51:37.277Z,23.76
2019-01-29T10:54:14.142Z,24.06
2019-01-29T10:56:48.391Z,24.15
2019-01-29T10:59:23.279Z,24.20
2019-01-29T11:01:59.127Z,24.64
2019-01-29T11:04:37.701Z,24.85
2019-01-29T11:07:12.575Z,25.11
2019-01-29T11:09:48.533Z,24.50
2019-01-29T11:12:26.071Z,24.84
2019-01-29T11:15:02.055Z,25.52
2019-01-29T11:17:39.738Z,24.49
2019-01-29T11:20:27.622Z,24.55
2019-01-29T11:23:04.480Z,24.68
2019-01-29T11:25:42.235Z,24.84
2019-01-29T11:28:19.387Z,25.29
2019-01-29T11:30:56.109Z,24.90
2019-01-29T11:33:31.504Z,25.62
2019-01-29T11:36:09.316Z,25.08
2019-01-29T11:38:49.490Z,25.18
2019-01-29T11:41:25.658Z,25.99
2019-01-29T11:44:07.472Z,25.21
2019-01-29T11:46:48.484Z,25.35
2019-01-29T11:49:23.671Z,26.19
2019-01-29T11:52:03.681Z,26.00
2019-01-29T11:54:44.979Z,26.15
2019-01-29T11:57:28.708Z,25.76
2019-01-29T12:00:11.316Z,25.59
2019-01-29T12:02:48.088Z,25.78
2019-01-29T12:05:30.400Z,26.10
2019-01-29T12:11:03.382Z,26.64
2019-01-29T12:13:38.584Z,26.73
2019-01-29T12:16:15.622Z,26.52
2019-01-29T12:21:52.325Z,27.09
2019-01-29T12:24:42.152Z,27.39
2019-01-29T12:27:29.060Z,27.02
2019-01-29T12:30:11.834Z,27.29
2019-01-29T12:32:51.535Z,27.37
2019-01-29T12:35:31.358Z,27.30
2019-01-29T12:38:10.776Z,27.26
2019-01-29T12:40:47.425Z,27.71
2019-01-29T12:43:23.040Z,27.86
2019-01-29T12:45:58.187Z,28.39
2019-01-29T12:48:35.929Z,27.81
2019-01-29T12:51:13.116Z,28.05
2019-01-29T12:53:50.645Z,28.08
2019-01-29T12:56:25.672Z,28.87
2019-01-29T12:59:02.808Z,28.65
2019-01-29T13:01:42.773Z,28.21
2019-01-29T13:04:17.793Z,27.78
2019-01-29T13:07:05.780Z,27.75
2019-01-29T13:09:42.817Z,27.56
2019-01-29T13:12:24.971Z,27.44
2019-01-29T13:15:01.318Z,27.71
2019-01-29T13:17:37.795Z,27.68
2019-01-29T13:20:19.280Z,28.24
2019-01-29T13:22:54.385Z,27.88
2019-01-29T13:25:32.596Z,28.24
2019-01-29T13:28:10.340Z,27.73
2019-01-29T13:30:44.759Z,27.69
2019-01-29T13:33:21.760Z,28.02
2019-01-29T13:35:59.446Z,28.41
2019-01-29T13:38:35.636Z,28.53
2019-01-29T13:41:24.936Z,28.27
2019-01-29T13:44:05.851Z,28.44
2019-01-29T13:46:41.157Z,28.80
2019-01-29T13:49:21.214Z,28.62
2019-01-29T13:51:58.276Z,29.00
2019-01-29T13:54:33.256Z,28.82
2019-01-29T13:57:09.304Z,28.38
2019-01-29T13:59:47.090Z,28.19
2019-01-29T14:02:23.034Z,28.40
2019-01-29T14:05:01.326Z,28.79
2019-01-29T14:07:42.024Z,28.79
2019-01-29T14:10:21.345Z,28.95
2019-01-29T14:13:02.571Z,28.18
2019-01-29T14:15:38.405Z,28.05
2019-01-29T14:18:13.992Z,28.75
2019-01-29T14:20:48.576Z,28.72
2019-01-29T14:23:24.946Z,28.01
2019-01-29T14:26:00.267Z,27.83
2019-01-29T14:28:44.806Z,28.03
2019-01-29T14:31:22.407Z,27.66
2019-01-29T14:34:00.825Z,27.84
2019-01-29T14:36:35.696Z,27.92
2019-01-29T14:39:21.468Z,27.95
2019-01-29T14:41:58.785Z,28.75
2019-01-29T14:44:34.000Z,28.27
2019-01-29T14:47:13.558Z,28.01
2019-01-29T14:49:52.876Z,28.00
2019-01-29T14:52:29.279Z,28.12
2019-01-29T14:55:04.476Z,28.31
2019-01-29T14:57:41.079Z,28.69
2019-01-29T15:00:26.471Z,28.20
2019-01-29T15:03:03.777Z,27.99
2019-01-29T15:05:39.056Z,28.37
2019-01-29T15:08:13.193Z,28.48
2019-01-29T15:10:47.562Z,28.25
2019-01-29T15:13:21.814Z,28.57
2019-01-29T15:15:57.376Z,29.02
2019-01-29T15:18:40.482Z,29.55
2019-01-29T15:21:07.710Z,29.55
2019-01-29T15:23:42.658Z,29.11
2019-01-29T15:26:18.317Z,28.87
2019-01-29T15:28:52.477Z,29.23
2019-01-29T15:31:26.374Z,29.37
2019-01-29T15:34:00.467Z,29.38
2019-01-29T15:36:34.771Z,29.94
2019-01-29T15:39:10.735Z,29.58
2019-01-29T15:41:44.583Z,29.65
2019-01-29T15:44:18.569Z,29.30
2019-01-29T15:46:53.101Z,29.43
2019-01-29T15:49:26.918Z,29.54
2019-01-29T15:52:00.768Z,29.48
2019-01-29T15:54:36.190Z,29.65
2019-01-29T15:57:14.264Z,29.73
2019-01-29T15:59:45.007Z,29.63
2019-01-29T16:02:18.960Z,29.59
2019-01-29T16:04:52.958Z,29.66
2019-01-29T16:07:26.201Z,30.33
2019-01-29T16:10:00.961Z,30.28
2019-01-29T16:12:34.430Z,30.61
2019-01-29T16:15:10.848Z,30.61
2019-01-29T16:17:44.191Z,30.89
2019-01-29T16:20:20.251Z,30.82
2019-01-29T16:22:53.739Z,31.13
2019-01-29T16:25:34.794Z,31.14
2019-01-29T16:28:07.919Z,31.36
2019-01-29T16:30:41.825Z,31.63
2019-01-29T16:33:14.989Z,31.87
2019-01-29T16:35:48.524Z,32.18
2019-01-29T16:38:21.826Z,32.35
2019-01-29T16:41:00.445Z,32.45
2019-01-29T16:43:30.216Z,33.16
2019-01-29T16:46:04.968Z,33.34
2019-01-29T16:48:40.537Z,33.42
2019-01-29T16:51:14.120Z,33.75
2019-01-29T16:53:47.417Z,34.01
2019-01-29T16:56:20.636Z,34.10
2019-01-29T16:58:54.231Z,34.72
2019-01-29T17:01:28.448Z,34.87
2019-01-29T17:04:01.532Z,34.88
2019-01-29T17:06:34.932Z,35.04
2019-01-29T17:09:12.822Z,35.04
2019-01-29T17:11:45.816Z,35.12
2019-01-29T17:14:19.219Z,35.29
2019-01-29T17:16:52.654Z,35.62
2019-01-29T17:19:25.870Z,35.80
2019-01-29T17:21:59.330Z,35.73
2019-01-29T17:24:32.383Z,36.15
2019-01-29T17:27:05.977Z,36.37
2019-01-29T17:29:39.429Z,36.53
2019-01-29T17:32:12.920Z,36.57
2019-01-29T17:34:46.301Z,36.89
2019-01-29T17:37:19.922Z,36.87
2019-01-29T17:39:53.323Z,37.02
2019-01-29T17:42:26.616Z,37.05
2019-01-29T17:45:01.579Z,37.09
2019-01-29T17:47:35.611Z,37.31
2019-01-29T17:50:14.369Z,37.62
2019-01-29T17:52:48.152Z,37.61
2019-01-29T17:55:21.746Z,37.68
2019-01-29T17:57:55.354Z,37.97
2019-01-29T18:00:31.222Z,38.38
2019-01-29T18:03:05.118Z,38.54
2019-01-29T18:05:38.557Z,38.62
2019-01-29T18:08:12.868Z,38.87
2019-01-29T18:10:46.292Z,38.92
2019-01-29T18:13:19.472Z,38.98
2019-01-29T18:15:52.876Z,39.18
2019-01-29T18:18:26.534Z,39.26
2019-01-29T18:21:00.103Z,39.12
2019-01-29T18:23:33.308Z,39.38
2019-01-29T18:26:06.873Z,39.69
2019-01-29T18:28:40.372Z,39.69
2019-01-29T18:31:16.846Z,39.85
2019-01-29T18:33:51.453Z,39.76
2019-01-29T18:36:24.904Z,40.00
2019-01-29T18:38:58.913Z,40.08
2019-01-29T18:41:32.529Z,40.32
2019-01-29T18:44:05.883Z,40.24
2019-01-29T18:46:39.335Z,40.16
2019-01-29T18:49:14.137Z,40.36
2019-01-29T18:51:47.920Z,40.61
2019-01-29T18:54:22.012Z,40.70
2019-01-29T18:56:55.534Z,41.08
2019-01-29T18:59:29.165Z,41.50
2019-01-29T19:02:02.426Z,41.84
2019-01-29T19:04:35.804Z,41.76
2019-01-29T19:07:09.395Z,42.01
2019-01-29T19:09:43.223Z,42.16
2019-01-29T19:12:16.530Z,42.35
2019-01-29T19:14:50.123Z,42.63
2019-01-29T19:17:23.438Z,43.08
2019-01-29T19:19:56.753Z,43.40
2019-01-29T19:22:30.032Z,43.18
2019-01-29T19:25:03.450Z,43.32
2019-01-29T19:27:36.849Z,43.71
2019-01-29T19:30:14.576Z,43.56
2019-01-29T19:32:47.685Z,44.02
2019-01-29T19:35:20.984Z,44.24
2019-01-29T19:37:54.307Z,44.17
2019-01-29T19:40:27.621Z,44.68
2019-01-29T19:43:01.167Z,44.34
2019-01-29T19:45:37.773Z,44.56
2019-01-29T19:48:10.964Z,44.56
2019-01-29T19:50:44.940Z,44.48
2019-01-29T19:53:19.350Z,44.32
2019-01-29T19:55:53.141Z,44.21
2019-01-29T19:58:32.295Z,44.77
2019-01-29T20:01:02.952Z,44.41
2019-01-29T20:03:36.275Z,44.45
2019-01-29T20:06:10.340Z,44.22
2019-01-29T20:08:43.512Z,44.55
2019-01-29T20:11:17.203Z,44.57
2019-01-29T20:13:50.522Z,44.49
2019-01-29T20:16:23.777Z,44.36
2019-01-29T20:18:56.957Z,44.18
2019-01-29T20:21:30.673Z,43.98
2019-01-29T20:24:04.022Z,43.89
2019-01-29T20:26:37.148Z,43.61
2019-01-29T20:29:10.461Z,43.17
2019-01-29T20:31:43.391Z,43.11
2019-01-29T20:34:17.606Z,41.73
2019-01-29T20:36:50.747Z,40.79
2019-01-29T20:39:34.495Z,39.88
2019-01-29T20:41:59.560Z,39.67
2019-01-29T20:44:33.053Z,39.32
2019-01-29T20:47:06.259Z,38.92
2019-01-29T20:49:39.437Z,38.94
2019-01-29T20:52:12.505Z,36.49
2019-01-29T20:54:45.461Z,35.61
2019-01-29T20:57:18.631Z,34.77
2019-01-29T20:59:51.951Z,33.70
2019-01-29T21:02:25.435Z,33.29
2019-01-29T21:05:00.295Z,32.94
2019-01-29T21:07:34.531Z,33.12
2019-01-29T21:10:17.818Z,33.30
2019-01-29T21:12:50.931Z,33.47
2019-01-29T21:15:38.147Z,33.96
2019-01-29T21:18:04.378Z,33.83
2019-01-29T21:20:38.060Z,34.48
2019-01-29T21:23:11.969Z,34.45
2019-01-29T21:25:45.295Z,34.72
2019-01-29T21:28:18.472Z,35.84
2019-01-29T21:30:54.355Z,36.64
2019-01-29T21:33:27.668Z,37.18
2019-01-29T21:36:01.177Z,38.04
2019-01-29T21:38:34.459Z,38.00
2019-01-29T21:41:11.313Z,38.37
2019-01-29T21:43:45.435Z,38.58
2019-01-29T21:46:25.738Z,38.65
2019-01-29T21:48:59.478Z,38.78
2019-01-29T21:51:32.713Z,38.65
2019-01-29T21:54:05.914Z,38.68
2019-01-29T21:56:39.392Z,38.79
2019-01-29T21:59:13.626Z,38.93
2019-01-29T22:01:46.719Z,38.67
2019-01-29T22:04:21.407Z,38.43
2019-01-29T22:06:55.926Z,38.40
2019-01-29T22:09:28.978Z,38.51
2019-01-29T22:12:02.591Z,38.12
2019-01-29T22:14:36.207Z,38.31
2019-01-29T22:17:11.434Z,38.20
2019-01-29T22:19:44.883Z,36.99
2019-01-29T22:22:18.642Z,36.52
2019-01-29T22:24:52.189Z,36.38
2019-01-29T22:27:25.855Z,35.27
2019-01-29T22:29:59.369Z,35.26
2019-01-29T22:32:33.077Z,35.26
2019-01-29T22:35:06.723Z,35.28
2019-01-29T22:37:40.026Z,34.31
2019-01-29T22:40:18.587Z,34.56
2019-01-29T22:42:52.778Z,34.51
2019-01-29T22:45:29.857Z,34.42
2019-01-29T22:48:01.660Z,34.22
2019-01-29T22:50:40.406Z,34.59
2019-01-29T22:53:13.479Z,33.93
2019-01-29T22:55:46.517Z,34.15
2019-01-29T22:58:27.228Z,34.31
2019-01-29T23:01:12.558Z,34.28
2019-01-29T23:03:48.478Z,34.39
2019-01-29T23:06:49.113Z,34.45
2019-01-29T23:09:22.400Z,34.77
2019-01-29T23:11:55.438Z,34.98
2019-01-29T23:14:28.712Z,34.34
2019-01-29T23:17:02.656Z,34.04
2019-01-29T23:19:36.250Z,33.99
2019-01-29T23:22:09.952Z,34.34
2019-01-29T23:24:43.262Z,34.34
2019-01-29T23:27:16.955Z,34.09
2019-01-29T23:29:50.408Z,34.21
2019-01-29T23:32:23.751Z,33.80
2019-01-29T23:34:57.163Z,34.28
2019-01-29T23:37:30.637Z,34.44
2019-01-29T23:40:03.791Z,34.52
2019-01-29T23:42:38.174Z,34.41
2019-01-29T23:45:13.709Z,34.50
2019-01-29T23:47:47.829Z,34.72
2019-01-29T23:50:20.760Z,34.39
2019-01-29T23:52:53.819Z,34.22
2019-01-29T23:55:28.051Z,34.09
2019-01-29T23:58:01.420Z,34.12
